sensor_id;sensor_type;location;lat;lon;timestamp;P1;durP1;ratioP1;P2;durP2;ratioP2
48026;SDS011;50714;49.208;5.364;2022-12-20T00:04:50;3.13;;;2.20;;
48026;SDS011;50714;49.208;5.364;2022-12-20T00:14:50;4.65;;;2.50;;
48026;SDS011;50714;49.208;5.364;2022-12-20T00:24:51;3.78;;;2.08;;
48026;SDS011;50714;49.208;5.364;2022-12-20T00:34:51;3.22;;;2.20;;
48026;SDS011;50714;49.208;5.364;2022-12-20T00:44:51;1.92;;;1.58;;
48026;SDS011;50714;49.208;5.364;2022-12-20T00:54:52;2.42;;;1.88;;
48026;SDS011;50714;49.208;5.364;2022-12-20T01:04:52;3.65;;;2.35;;
48026;SDS011;50714;49.208;5.364;2022-12-20T01:14:52;2.63;;;1.70;;
48026;SDS011;50714;49.208;5.364;2022-12-20T01:24:53;2.53;;;1.70;;
48026;SDS011;50714;49.208;5.364;2022-12-20T01:34:53;3.53;;;1.70;;
48026;SDS011;50714;49.208;5.364;2022-12-20T01:44:55;2.00;;;1.70;;
48026;SDS011;50714;49.208;5.364;2022-12-20T01:55:07;2.42;;;1.60;;
48026;SDS011;50714;49.208;5.364;2022-12-20T02:05:08;1.90;;;1.50;;
48026;SDS011;50714;49.208;5.364;2022-12-20T02:35:40;1.98;;;1.48;;
48026;SDS011;50714;49.208;5.364;2022-12-20T02:45:41;1.60;;;1.50;;
48026;SDS011;50714;49.208;5.364;2022-12-20T02:55:45;2.17;;;1.42;;
48026;SDS011;50714;49.208;5.364;2022-12-20T03:15:52;2.22;;;1.50;;
48026;SDS011;50714;49.208;5.364;2022-12-20T03:25:52;2.28;;;1.70;;
48026;SDS011;50714;49.208;5.364;2022-12-20T03:35:53;1.58;;;1.48;;
48026;SDS011;50714;49.208;5.364;2022-12-20T03:45:53;1.65;;;1.52;;
48026;SDS011;50714;49.208;5.364;2022-12-20T03:55:54;2.70;;;2.00;;
48026;SDS011;50714;49.208;5.364;2022-12-20T04:05:54;2.38;;;1.58;;
48026;SDS011;50714;49.208;5.364;2022-12-20T04:15:54;2.58;;;1.90;;
48026;SDS011;50714;49.208;5.364;2022-12-20T04:25:55;1.90;;;1.50;;
48026;SDS011;50714;49.208;5.364;2022-12-20T04:35:55;2.10;;;1.85;;
48026;SDS011;50714;49.208;5.364;2022-12-20T04:45:56;1.60;;;1.40;;
48026;SDS011;50714;49.208;5.364;2022-12-20T04:55:56;1.60;;;1.50;;
48026;SDS011;50714;49.208;5.364;2022-12-20T05:05:57;3.65;;;1.55;;
48026;SDS011;50714;49.208;5.364;2022-12-20T05:15:57;2.85;;;2.05;;
48026;SDS011;50714;49.208;5.364;2022-12-20T05:25:58;2.20;;;1.80;;
48026;SDS011;50714;49.208;5.364;2022-12-20T05:36:01;1.80;;;1.67;;
48026;SDS011;50714;49.208;5.364;2022-12-20T05:46:02;2.03;;;1.65;;
48026;SDS011;50714;49.208;5.364;2022-12-20T05:56:02;2.00;;;1.45;;
48026;SDS011;50714;49.208;5.364;2022-12-20T06:06:03;2.15;;;1.50;;
48026;SDS011;50714;49.208;5.364;2022-12-20T06:16:03;3.47;;;2.50;;
48026;SDS011;50714;49.208;5.364;2022-12-20T06:26:04;3.13;;;2.15;;
48026;SDS011;50714;49.208;5.364;2022-12-20T06:36:08;1.70;;;1.60;;
48026;SDS011;50714;49.208;5.364;2022-12-20T06:46:08;1.83;;;1.60;;
48026;SDS011;50714;49.208;5.364;2022-12-20T06:56:08;2.85;;;2.22;;
48026;SDS011;50714;49.208;5.364;2022-12-20T07:06:09;8.27;;;6.78;;
48026;SDS011;50714;49.208;5.364;2022-12-20T07:16:09;4.45;;;3.67;;
48026;SDS011;50714;49.208;5.364;2022-12-20T07:26:10;3.70;;;2.40;;
48026;SDS011;50714;49.208;5.364;2022-12-20T07:36:11;3.00;;;2.25;;
48026;SDS011;50714;49.208;5.364;2022-12-20T07:46:13;4.50;;;4.00;;
48026;SDS011;50714;49.208;5.364;2022-12-20T07:56:14;2.83;;;2.25;;
48026;SDS011;50714;49.208;5.364;2022-12-20T08:06:17;4.10;;;3.08;;
48026;SDS011;50714;49.208;5.364;2022-12-20T08:16:18;3.50;;;2.85;;
48026;SDS011;50714;49.208;5.364;2022-12-20T08:26:18;13.27;;;10.27;;
48026;SDS011;50714;49.208;5.364;2022-12-20T08:36:18;25.92;;;19.33;;
48026;SDS011;50714;49.208;5.364;2022-12-20T08:46:19;14.02;;;10.15;;
48026;SDS011;50714;49.208;5.364;2022-12-20T08:56:19;4.78;;;3.00;;
48026;SDS011;50714;49.208;5.364;2022-12-20T09:06:21;3.23;;;2.20;;
48026;SDS011;50714;49.208;5.364;2022-12-20T09:16:23;1.42;;;1.30;;
48026;SDS011;50714;49.208;5.364;2022-12-20T09:26:25;2.10;;;1.55;;
48026;SDS011;50714;49.208;5.364;2022-12-20T09:36:26;2.00;;;1.60;;
48026;SDS011;50714;49.208;5.364;2022-12-20T09:46:28;2.75;;;1.73;;
48026;SDS011;50714;49.208;5.364;2022-12-20T09:56:29;5.53;;;2.00;;
48026;SDS011;50714;49.208;5.364;2022-12-20T10:06:37;3.22;;;1.90;;
48026;SDS011;50714;49.208;5.364;2022-12-20T10:16:46;3.40;;;2.55;;
48026;SDS011;50714;49.208;5.364;2022-12-20T10:26:50;3.95;;;2.80;;
48026;SDS011;50714;49.208;5.364;2022-12-20T10:48:03;2.40;;;1.70;;
48026;SDS011;50714;49.208;5.364;2022-12-20T10:57:45;1.98;;;1.67;;
48026;SDS011;50714;49.208;5.364;2022-12-20T11:18:07;1.27;;;1.15;;
48026;SDS011;50714;49.208;5.364;2022-12-20T11:59:37;6.35;;;4.88;;
48026;SDS011;50714;49.208;5.364;2022-12-20T12:20:21;2.70;;;1.90;;
48026;SDS011;50714;49.208;5.364;2022-12-20T12:30:35;4.13;;;3.22;;
48026;SDS011;50714;49.208;5.364;2022-12-20T12:40:55;1.90;;;1.70;;
48026;SDS011;50714;49.208;5.364;2022-12-20T12:51:21;1.85;;;1.40;;
48026;SDS011;50714;49.208;5.364;2022-12-20T13:01:45;3.85;;;2.30;;
48026;SDS011;50714;49.208;5.364;2022-12-20T13:11:53;2.65;;;1.65;;
48026;SDS011;50714;49.208;5.364;2022-12-20T13:21:58;2.35;;;1.52;;
48026;SDS011;50714;49.208;5.364;2022-12-20T13:42:48;3.38;;;2.47;;
48026;SDS011;50714;49.208;5.364;2022-12-20T13:52:53;6.47;;;4.60;;
48026;SDS011;50714;49.208;5.364;2022-12-20T14:02:54;4.05;;;3.00;;
48026;SDS011;50714;49.208;5.364;2022-12-20T14:12:55;4.53;;;3.33;;
48026;SDS011;50714;49.208;5.364;2022-12-20T14:33:54;8.55;;;7.20;;
48026;SDS011;50714;49.208;5.364;2022-12-20T14:43:38;5.15;;;2.80;;
48026;SDS011;50714;49.208;5.364;2022-12-20T14:53:38;2.40;;;1.95;;
48026;SDS011;50714;49.208;5.364;2022-12-20T15:03:53;2.60;;;1.80;;
48026;SDS011;50714;49.208;5.364;2022-12-20T15:13:58;2.30;;;1.65;;
48026;SDS011;50714;49.208;5.364;2022-12-20T15:23:58;4.10;;;1.67;;
48026;SDS011;50714;49.208;5.364;2022-12-20T15:34:17;3.33;;;1.85;;
48026;SDS011;50714;49.208;5.364;2022-12-20T15:44:26;3.53;;;2.53;;
48026;SDS011;50714;49.208;5.364;2022-12-20T15:54:30;5.00;;;3.20;;
48026;SDS011;50714;49.208;5.364;2022-12-20T16:04:33;3.38;;;2.88;;
48026;SDS011;50714;49.208;5.364;2022-12-20T16:14:34;7.37;;;6.03;;
48026;SDS011;50714;49.208;5.364;2022-12-20T16:24:34;4.70;;;3.20;;
48026;SDS011;50714;49.208;5.364;2022-12-20T16:34:34;3.30;;;2.20;;
48026;SDS011;50714;49.208;5.364;2022-12-20T16:44:35;3.15;;;2.25;;
48026;SDS011;50714;49.208;5.364;2022-12-20T16:54:35;7.35;;;4.07;;
48026;SDS011;50714;49.208;5.364;2022-12-20T17:04:35;6.20;;;4.13;;
48026;SDS011;50714;49.208;5.364;2022-12-20T17:14:36;8.95;;;7.05;;
48026;SDS011;50714;49.208;5.364;2022-12-20T17:24:37;10.82;;;8.40;;
48026;SDS011;50714;49.208;5.364;2022-12-20T17:34:37;11.10;;;8.05;;
48026;SDS011;50714;49.208;5.364;2022-12-20T17:44:38;8.50;;;5.90;;
48026;SDS011;50714;49.208;5.364;2022-12-20T17:54:38;7.63;;;5.57;;
48026;SDS011;50714;49.208;5.364;2022-12-20T18:04:38;10.07;;;7.13;;
48026;SDS011;50714;49.208;5.364;2022-12-20T18:14:39;5.60;;;4.25;;
48026;SDS011;50714;49.208;5.364;2022-12-20T18:24:39;2.88;;;2.25;;
48026;SDS011;50714;49.208;5.364;2022-12-20T18:34:39;3.35;;;2.25;;
48026;SDS011;50714;49.208;5.364;2022-12-20T18:44:40;3.70;;;2.00;;
48026;SDS011;50714;49.208;5.364;2022-12-20T18:54:40;3.13;;;1.60;;
48026;SDS011;50714;49.208;5.364;2022-12-20T19:04:40;2.20;;;1.73;;
48026;SDS011;50714;49.208;5.364;2022-12-20T19:14:41;3.47;;;2.10;;
48026;SDS011;50714;49.208;5.364;2022-12-20T19:24:41;2.25;;;1.80;;
48026;SDS011;50714;49.208;5.364;2022-12-20T19:34:43;2.55;;;2.35;;
48026;SDS011;50714;49.208;5.364;2022-12-20T19:44:43;3.00;;;2.20;;
48026;SDS011;50714;49.208;5.364;2022-12-20T19:54:43;4.38;;;2.88;;
48026;SDS011;50714;49.208;5.364;2022-12-20T20:04:44;8.27;;;5.05;;
48026;SDS011;50714;49.208;5.364;2022-12-20T20:14:44;7.90;;;4.65;;
48026;SDS011;50714;49.208;5.364;2022-12-20T20:24:45;8.60;;;5.80;;
48026;SDS011;50714;49.208;5.364;2022-12-20T20:34:45;3.78;;;2.50;;
48026;SDS011;50714;49.208;5.364;2022-12-20T20:44:45;7.30;;;4.45;;
48026;SDS011;50714;49.208;5.364;2022-12-20T20:54:46;3.35;;;2.65;;
48026;SDS011;50714;49.208;5.364;2022-12-20T21:04:46;2.80;;;2.22;;
48026;SDS011;50714;49.208;5.364;2022-12-20T21:14:47;2.50;;;1.85;;
48026;SDS011;50714;49.208;5.364;2022-12-20T21:24:47;2.28;;;1.98;;
48026;SDS011;50714;49.208;5.364;2022-12-20T21:34:47;2.10;;;1.90;;
48026;SDS011;50714;49.208;5.364;2022-12-20T21:44:48;4.53;;;3.25;;
48026;SDS011;50714;49.208;5.364;2022-12-20T21:54:48;3.58;;;2.63;;
48026;SDS011;50714;49.208;5.364;2022-12-20T22:04:48;3.58;;;2.30;;
48026;SDS011;50714;49.208;5.364;2022-12-20T22:14:49;6.63;;;5.00;;
48026;SDS011;50714;49.208;5.364;2022-12-20T22:24:49;7.60;;;4.53;;
48026;SDS011;50714;49.208;5.364;2022-12-20T22:34:50;11.32;;;7.90;;
48026;SDS011;50714;49.208;5.364;2022-12-20T22:44:50;8.32;;;5.60;;
48026;SDS011;50714;49.208;5.364;2022-12-20T22:54:50;11.60;;;7.82;;
48026;SDS011;50714;49.208;5.364;2022-12-20T23:04:51;9.70;;;6.47;;
48026;SDS011;50714;49.208;5.364;2022-12-20T23:14:51;9.75;;;6.68;;
48026;SDS011;50714;49.208;5.364;2022-12-20T23:25:11;12.43;;;7.30;;
48026;SDS011;50714;49.208;5.364;2022-12-20T23:35:21;16.35;;;7.65;;
48026;SDS011;50714;49.208;5.364;2022-12-20T23:45:23;18.95;;;10.13;;
48026;SDS011;50714;49.208;5.364;2022-12-20T23:55:23;17.55;;;9.57;;
